Krabi, Thailand

5:14 AM ICT on July 24, 2016 (GMT +0700)
Krabi | | Change Station

Elev 82 ft 8.10 °N, 98.99 °E | Updated 14 minutes ago

Partly Cloudy
Partly Cloudy
75 °F
Feels Like 75 °F
N
2
Wind Variable Wind from Variable

Today
High -- | Low -- °F
--% Chance of Precip.
Yesterday
High -- | Low -- °F
Precip. -- in
Pressure 29.80 in
Visibility 1.9 miles
Clouds Few 2000 ft
Dew Point 73 °F
Humidity 94%
Rainfall 0.00 in
Snow Depth Not available.
6:15 AM 6:45 PM
Waning Gibbous, 82% visible
METAR VTSG 232200Z VRB02KT 3000 BR FEW020 24/23 Q1009 A2980 INFO S RWY32
Pressure 29.80 in
Visibility 1.9 miles
Clouds Few 2000 ft
Dew Point 73 °F
Humidity 94%
Rainfall 0.00 in
Snow Depth Not available.
6:15 AM 6:45 PM
Waning Gibbous, 82% visible
METAR VTSG 232200Z VRB02KT 3000 BR FEW020 24/23 Q1009 A2980 INFO S RWY32

10-Day Weather Forecast

No radar image for this location.
×

Almanac

Astronomy

Jul. 24, 2016 Rise Set
Actual Time
Civil Twilight
Nautical Twilight
Astronomical Twilight
Moon
Length of Visible Light
Length of Day
Tomorrow will be .
, % of the Moon is Illuminated

Today's Extremes

Country Highs Country Lows

Community

WunderPhotos

Upload Photos

1,926,940 photos uploaded!

WunderBlog® & News

Nearby

Air Quality

  Air Quality AQ Index Pollutant
Not available.

Snow Depth

Station Depth Elevation

Earthquake Activity

City Distance Mag. Time & Date
Minimum magnitude displayed is 2.5.

Coastal Water Temperatures

Place Temperature

Stations

Nearby Weather Stations

Station Location Temp. Windchill Dew Point Humidity Wind Precip. Elev Updated Type